Terminal Aerodrome Forecast
Issued by NWS Portland, OR

Home | Current Version | Previous Version | Text Only | Print | Product List | Glossary On
Versions: 1 2 3 4 5 6 7 8 9 10 11 12 13 14 15 16 17 18 19 20 21 22 23 24
649
FTUS46 KPQR 170536
TAFTTD
TAF
KTTD 170536Z 1706/1806 09028G40KT P6SM OVC110
     FM171300 10025G35KT P6SM SCT050 OVC080
     FM171600 10025G35KT P6SM -FZRA SCT040 OVC060
     FM172100 10020G30KT P6SM -FZRA SCT025 OVC045=

USA.gov is the U.S. government's official web portal to all federal, state and local government web resources and services.